createdAt,value
2023-03-22T00:02:17.318Z,1.40
2023-03-22T00:04:45.224Z,1.10
2023-03-22T00:07:13.217Z,1.20
2023-03-22T00:09:41.061Z,2.00
2023-03-22T00:12:08.988Z,1.10
2023-03-22T00:14:36.843Z,1.20
2023-03-22T00:17:04.723Z,1.80
2023-03-22T00:19:34.112Z,1.60
2023-03-22T00:22:03.627Z,1.50
2023-03-22T00:24:32.024Z,1.20
2023-03-22T00:27:00.992Z,2.00
2023-03-22T00:29:28.867Z,1.30
2023-03-22T00:31:56.709Z,1.00
2023-03-22T00:34:24.685Z,1.40
2023-03-22T00:36:52.573Z,1.50
2023-03-22T00:39:20.978Z,1.50
2023-03-22T00:41:48.843Z,1.30
2023-03-22T00:44:16.892Z,1.20
2023-03-22T00:46:45.926Z,1.00
2023-03-22T00:49:13.905Z,1.60
2023-03-22T00:51:41.766Z,1.30
2023-03-22T00:54:09.609Z,1.60
2023-03-22T00:56:38.495Z,1.60
2023-03-22T00:59:13.931Z,1.60
2023-03-22T01:01:43.216Z,1.10
2023-03-22T01:04:15.409Z,1.40
2023-03-22T01:06:44.756Z,1.70
2023-03-22T01:09:15.372Z,1.20
2023-03-22T01:11:44.197Z,1.20
2023-03-22T01:14:13.983Z,1.30
2023-03-22T01:16:42.193Z,1.30
2023-03-22T01:19:10.654Z,1.10
2023-03-22T01:21:38.842Z,1.50
2023-03-22T01:24:07.245Z,1.40
2023-03-22T01:26:35.851Z,1.40
2023-03-22T01:29:03.860Z,1.20
2023-03-22T01:31:31.863Z,1.40
2023-03-22T01:33:59.740Z,1.50
2023-03-22T01:36:27.757Z,1.30
2023-03-22T01:38:56.448Z,2.00
2023-03-22T01:41:25.425Z,1.30
2023-03-22T01:44:13.835Z,1.40
2023-03-22T01:46:45.466Z,1.30
2023-03-22T01:49:26.003Z,1.30
2023-03-22T01:52:00.736Z,1.50
2023-03-22T01:54:47.034Z,1.50
2023-03-22T01:57:41.714Z,1.40
2023-03-22T02:00:15.809Z,1.70
2023-03-22T02:03:06.375Z,1.60
2023-03-22T02:05:38.732Z,1.60
2023-03-22T02:08:09.003Z,1.50
2023-03-22T02:10:55.730Z,1.30
2023-03-22T02:13:42.456Z,1.90
2023-03-22T02:17:06.253Z,1.40
2023-03-22T02:19:54.187Z,1.30
2023-03-22T02:22:28.364Z,1.20
2023-03-22T02:25:33.938Z,1.50
2023-03-22T02:28:24.648Z,1.80
2023-03-22T02:31:16.694Z,1.90
2023-03-22T02:34:15.706Z,1.90
2023-03-22T02:37:08.366Z,1.50
2023-03-22T02:39:57.758Z,1.60
2023-03-22T02:42:41.951Z,1.60
2023-03-22T02:45:24.876Z,1.50
2023-03-22T02:48:05.718Z,1.00
2023-03-22T02:50:51.400Z,1.70
2023-03-22T02:53:33.234Z,1.20
2023-03-22T02:56:14.855Z,1.30
2023-03-22T02:58:49.139Z,1.40
2023-03-22T03:01:27.262Z,1.50
2023-03-22T03:04:01.249Z,1.70
2023-03-22T03:06:35.804Z,1.00
2023-03-22T03:09:05.380Z,1.60
2023-03-22T03:11:33.941Z,1.30
2023-03-22T03:14:01.980Z,1.40
2023-03-22T03:16:36.727Z,1.50
2023-03-22T03:19:27.992Z,1.00
2023-03-22T03:22:40.587Z,1.50
2023-03-22T03:25:29.875Z,1.20
2023-03-22T03:28:30.324Z,1.30
2023-03-22T03:31:16.293Z,1.50
2023-03-22T03:34:09.632Z,1.30
2023-03-22T03:36:46.168Z,1.40
2023-03-22T03:39:17.609Z,1.40
2023-03-22T03:41:49.973Z,1.10
2023-03-22T03:44:19.338Z,0.90
2023-03-22T03:46:48.993Z,1.20
2023-03-22T03:49:18.119Z,0.90
2023-03-22T03:51:49.972Z,0.90
2023-03-22T03:54:18.043Z,1.00
2023-03-22T03:56:47.806Z,0.90
2023-03-22T03:59:18.063Z,0.70
2023-03-22T04:01:51.696Z,1.00
2023-03-22T04:04:28.221Z,1.10
2023-03-22T04:07:06.587Z,1.20
2023-03-22T04:09:39.109Z,1.10
2023-03-22T04:12:17.065Z,1.50
2023-03-22T04:14:49.516Z,0.80
2023-03-22T04:17:23.103Z,1.00
2023-03-22T04:19:53.513Z,0.90
2023-03-22T04:22:21.442Z,1.00
2023-03-22T04:24:52.406Z,0.90
2023-03-22T04:27:22.516Z,1.00
2023-03-22T04:30:01.002Z,0.80
2023-03-22T04:32:48.382Z,0.90
2023-03-22T04:35:17.694Z,0.80
2023-03-22T04:37:45.808Z,0.80
2023-03-22T04:40:16.843Z,0.90
2023-03-22T04:43:04.200Z,0.70
2023-03-22T04:45:46.232Z,0.90
2023-03-22T04:48:17.573Z,0.60
2023-03-22T04:50:45.717Z,0.70
2023-03-22T04:53:13.692Z,0.80
2023-03-22T04:55:43.013Z,0.60
2023-03-22T04:58:11.198Z,0.80
2023-03-22T05:00:39.284Z,0.70
2023-03-22T05:03:07.373Z,0.80
2023-03-22T05:05:49.035Z,0.80
2023-03-22T05:08:16.971Z,0.80
2023-03-22T05:10:47.258Z,0.60
2023-03-22T05:13:15.369Z,0.80
2023-03-22T05:15:49.107Z,1.00
2023-03-22T05:18:21.585Z,0.50
2023-03-22T05:20:49.886Z,0.50
2023-03-22T05:23:21.171Z,0.70
2023-03-22T05:25:53.418Z,1.10
2023-03-22T05:28:22.374Z,0.70
2023-03-22T05:31:05.556Z,0.50
2023-03-22T05:33:41.872Z,0.70
2023-03-22T05:36:13.600Z,1.00
2023-03-22T05:38:56.718Z,0.70
2023-03-22T05:41:24.814Z,0.70
2023-03-22T05:43:52.628Z,1.10
2023-03-22T05:46:21.193Z,0.60
2023-03-22T05:49:07.297Z,0.60
2023-03-22T05:51:41.707Z,0.60
2023-03-22T05:54:10.441Z,0.60
2023-03-22T05:56:44.138Z,0.70
2023-03-22T05:59:11.997Z,0.80
2023-03-22T06:01:40.136Z,0.80
2023-03-22T06:04:18.760Z,0.60
2023-03-22T06:06:56.457Z,0.80
2023-03-22T06:09:44.988Z,0.60
2023-03-22T06:12:17.123Z,0.60
2023-03-22T06:14:48.492Z,1.20
2023-03-22T06:17:42.378Z,0.90
2023-03-22T06:20:14.561Z,0.70
2023-03-22T06:22:46.729Z,0.70
2023-03-22T06:25:14.928Z,0.80
2023-03-22T06:27:45.891Z,0.70
2023-03-22T06:30:14.314Z,0.80
2023-03-22T06:33:06.199Z,0.50
2023-03-22T06:35:36.937Z,0.60
2023-03-22T06:38:05.384Z,0.70
2023-03-22T06:40:35.720Z,0.60
2023-03-22T06:43:07.015Z,0.50
2023-03-22T06:45:36.000Z,0.70
2023-03-22T06:48:04.514Z,0.70
2023-03-22T06:50:45.074Z,0.60
2023-03-22T06:53:15.968Z,0.40
2023-03-22T06:55:44.454Z,0.90
2023-03-22T06:58:15.436Z,0.40
2023-03-22T07:00:43.350Z,0.50
2023-03-22T07:03:11.537Z,0.70
2023-03-22T07:05:46.762Z,0.70
2023-03-22T07:08:14.661Z,0.70
2023-03-22T07:10:51.329Z,0.60
2023-03-22T07:13:21.388Z,0.70
2023-03-22T07:15:49.896Z,0.90
2023-03-22T07:18:33.615Z,0.90
2023-03-22T07:21:01.462Z,0.70
2023-03-22T07:23:29.845Z,1.10
2023-03-22T07:26:01.932Z,0.70
2023-03-22T07:28:33.478Z,1.20
2023-03-22T07:31:12.761Z,1.00
2023-03-22T07:33:54.850Z,1.00
2023-03-22T07:36:25.618Z,1.10
2023-03-22T07:38:54.304Z,1.20
2023-03-22T07:41:34.870Z,1.10
2023-03-22T07:44:22.481Z,1.20
2023-03-22T07:47:06.654Z,1.10
2023-03-22T07:49:41.180Z,1.40
2023-03-22T07:52:13.729Z,1.10
2023-03-22T07:54:41.822Z,1.30
2023-03-22T07:57:10.598Z,1.60
2023-03-22T07:59:44.239Z,1.50
2023-03-22T08:02:13.049Z,1.40
2023-03-22T08:04:45.390Z,1.10
2023-03-22T08:07:39.414Z,1.30
2023-03-22T08:10:08.120Z,1.20
2023-03-22T08:12:36.060Z,1.40
2023-03-22T08:15:11.349Z,1.10
2023-03-22T08:17:40.267Z,0.90
2023-03-22T08:20:14.192Z,1.50
2023-03-22T08:22:47.531Z,1.40
2023-03-22T08:25:27.787Z,1.30
2023-03-22T08:27:58.597Z,1.20
2023-03-22T08:30:28.097Z,0.90
2023-03-22T08:32:56.471Z,0.70
2023-03-22T08:35:24.565Z,0.90
2023-03-22T08:37:56.865Z,0.90
2023-03-22T08:40:28.416Z,0.80
2023-03-22T08:43:00.849Z,0.80
2023-03-22T08:45:29.861Z,0.90
2023-03-22T08:48:04.540Z,1.00
2023-03-22T08:50:37.655Z,0.60
2023-03-22T08:53:14.731Z,0.80
2023-03-22T08:55:47.469Z,0.80
2023-03-22T08:58:33.513Z,0.70
2023-03-22T09:01:21.211Z,0.60
2023-03-22T09:03:53.998Z,0.70
2023-03-22T09:06:22.260Z,0.70
2023-03-22T09:08:52.167Z,0.80
2023-03-22T09:11:22.925Z,0.80
2023-03-22T09:13:51.954Z,1.00
2023-03-22T09:16:20.034Z,0.80
2023-03-22T09:18:48.247Z,0.70
2023-03-22T09:21:18.327Z,0.80
2023-03-22T09:23:51.195Z,1.10
2023-03-22T09:26:22.653Z,0.90
2023-03-22T09:31:20.790Z,0.90
2023-03-22T09:33:52.360Z,0.90
2023-03-22T09:36:20.984Z,0.70
2023-03-22T09:38:50.030Z,1.10
2023-03-22T09:41:28.708Z,1.70
2023-03-22T09:44:05.290Z,2.00
2023-03-22T09:46:44.297Z,2.10
2023-03-22T09:49:22.553Z,2.30
2023-03-22T09:51:55.584Z,2.20
2023-03-22T09:54:35.962Z,2.30
2023-03-22T09:57:28.652Z,2.20
2023-03-22T10:01:09.536Z,2.50
2023-03-22T10:03:52.654Z,2.70
2023-03-22T10:06:28.299Z,2.90
2023-03-22T10:09:14.017Z,2.70
2023-03-22T10:11:56.481Z,2.30
2023-03-22T10:14:34.288Z,2.80
2023-03-22T10:17:11.732Z,2.50
2023-03-22T10:19:48.677Z,2.80
2023-03-22T10:22:22.535Z,2.70
2023-03-22T10:24:53.483Z,2.50
2023-03-22T10:27:23.654Z,2.70
2023-03-22T10:30:24.804Z,1.90
2023-03-22T10:33:03.220Z,2.90
2023-03-22T10:35:33.323Z,2.00
2023-03-22T10:38:07.281Z,2.10
2023-03-22T10:40:37.531Z,2.40
2023-03-22T10:43:20.441Z,2.10
2023-03-22T10:45:50.921Z,2.00
2023-03-22T10:48:36.274Z,1.60
2023-03-22T10:51:05.050Z,2.10
2023-03-22T10:53:47.508Z,2.20
2023-03-22T10:56:20.090Z,1.80
2023-03-22T10:58:51.086Z,1.90
2023-03-22T11:01:27.628Z,1.70
2023-03-22T11:04:05.887Z,2.20
2023-03-22T11:06:40.070Z,1.80
2023-03-22T11:09:16.553Z,1.70
2023-03-22T11:11:54.380Z,2.10
2023-03-22T11:14:36.860Z,1.70
2023-03-22T11:17:12.624Z,1.50
2023-03-22T11:19:55.085Z,2.30
2023-03-22T11:22:37.704Z,2.50
2023-03-22T11:25:17.869Z,1.60
2023-03-22T11:28:17.947Z,1.70
2023-03-22T11:31:03.159Z,2.00
2023-03-22T11:33:32.176Z,1.90
2023-03-22T11:36:16.248Z,2.00
2023-03-22T11:38:46.363Z,1.80
2023-03-22T11:44:22.721Z,1.60
2023-03-22T11:46:57.921Z,2.10
2023-03-22T11:49:38.056Z,2.10
2023-03-22T11:52:19.251Z,2.10
2023-03-22T11:54:47.738Z,1.80
2023-03-22T11:57:25.435Z,1.80
2023-03-22T12:00:24.754Z,1.80
2023-03-22T12:03:15.824Z,2.20
2023-03-22T12:05:47.891Z,1.70
2023-03-22T12:08:28.236Z,1.60
2023-03-22T12:11:06.483Z,1.90
2023-03-22T12:14:02.257Z,1.60
2023-03-22T12:16:46.485Z,1.90
2023-03-22T12:19:40.695Z,1.90
2023-03-22T12:22:18.205Z,1.90
2023-03-22T12:24:46.241Z,1.80
2023-03-22T12:27:39.822Z,2.10
2023-03-22T12:30:22.899Z,1.80
2023-03-22T12:33:14.589Z,1.70
2023-03-22T12:35:46.555Z,2.10
2023-03-22T12:38:33.895Z,2.10
2023-03-22T12:41:08.133Z,2.30
2023-03-22T12:43:55.781Z,2.30
2023-03-22T12:46:33.497Z,2.10
2023-03-22T12:49:19.331Z,2.00
2023-03-22T12:51:50.259Z,1.90
2023-03-22T12:54:23.110Z,2.10
2023-03-22T12:56:52.132Z,1.70
2023-03-22T12:59:27.929Z,1.60
2023-03-22T13:02:13.000Z,1.70
2023-03-22T13:04:43.188Z,1.50
2023-03-22T13:07:34.340Z,1.60
2023-03-22T13:10:30.949Z,1.90
2023-03-22T13:13:24.248Z,1.80
2023-03-22T13:16:13.548Z,2.00
2023-03-22T13:18:44.143Z,1.80
2023-03-22T13:21:22.344Z,2.10
2023-03-22T13:23:55.240Z,2.00
2023-03-22T13:26:54.399Z,1.80
2023-03-22T13:29:25.652Z,1.90
2023-03-22T13:34:46.894Z,1.40
2023-03-22T13:37:42.196Z,1.50
2023-03-22T13:40:42.362Z,1.80
2023-03-22T13:43:27.204Z,1.50
2023-03-22T13:46:17.843Z,1.80
2023-03-22T13:48:49.250Z,1.90
2023-03-22T13:51:25.213Z,2.50
2023-03-22T13:54:18.059Z,1.70
2023-03-22T13:57:01.359Z,2.30
2023-03-22T14:00:13.550Z,1.80
2023-03-22T14:02:45.701Z,1.90
2023-03-22T14:05:22.927Z,1.70
2023-03-22T14:07:56.290Z,1.70
2023-03-22T14:10:46.523Z,2.10
2023-03-22T14:13:26.062Z,1.80
2023-03-22T14:16:02.402Z,1.90
2023-03-22T14:18:34.480Z,1.70
2023-03-22T14:21:09.235Z,1.90
